Time;durP1;ratioP1;P1;durP2;ratioP2;P2;SDS_P1;SDS_P2;PMS_P1;PMS_P2;Temp;Humidity;BMP_temperature;BMP_pressure;BME280_temperature;BME280_humidity;BME280_pressure;Samples;Min_cycle;Max_cycle;Signal;HPM_P1;HPM_P2
2023/10/24 00:00:06;;;;;;;9.32;3.03;;;13.00;99.90;;;;;;5043485;28;20121;-77
2023/10/24 00:02:31;;;;;;;10.05;2.67;;;12.90;99.90;;;;;;5046110;28;20025;-77
2023/10/24 00:05:08;;;;;;;13.48;2.97;;;12.90;99.90;;;;;;5043532;28;20089;-76
2023/10/24 00:07:34;;;;;;;7.43;2.78;;;12.80;99.90;;;;;;5043437;28;20013;-78
2023/10/24 00:10:02;;;;;;;8.90;2.95;;;12.90;99.90;;;;;;5043010;28;20022;-77
2023/10/24 00:12:31;;;;;;;10.25;2.88;;;12.90;99.90;;;;;;5042319;28;20040;-76
2023/10/24 00:15:10;;;;;;;5.47;2.90;;;12.90;99.90;;;;;;5043041;28;20047;-76
2023/10/24 00:17:53;;;;;;;9.05;3.33;;;13.00;99.90;;;;;;5040518;28;20041;-76
2023/10/24 00:20:31;;;;;;;3.25;2.22;;;12.90;99.90;;;;;;5041300;28;20090;-77
2023/10/24 00:23:11;;;;;;;4.97;2.70;;;12.90;99.90;;;;;;5056407;28;20098;-76
2023/10/24 00:25:36;;;;;;;4.30;2.65;;;12.90;99.90;;;;;;5039739;28;20101;-78
2023/10/24 00:28:04;;;;;;;8.20;2.20;;;12.90;99.90;;;;;;5038615;28;20022;-77
2023/10/24 00:30:30;;;;;;;10.30;3.05;;;12.90;99.90;;;;;;5055834;28;20026;-76
2023/10/24 00:32:55;;;;;;;6.00;3.05;;;12.80;99.90;;;;;;5039779;28;20044;-78
2023/10/24 00:35:24;;;;;;;6.15;2.67;;;12.80;99.90;;;;;;5039380;28;20030;-77
2023/10/24 00:37:53;;;;;;;8.15;3.15;;;12.70;99.90;;;;;;5055711;28;20025;-77
2023/10/24 00:40:26;;;;;;;8.88;2.80;;;12.80;99.90;;;;;;5057645;28;20013;-78
2023/10/24 00:42:52;;;;;;;5.80;3.27;;;12.70;99.90;;;;;;5034507;28;20030;-78
2023/10/24 00:45:29;;;;;;;12.63;2.88;;;12.60;99.90;;;;;;5042287;28;20027;-76
2023/10/24 00:47:58;;;;;;;8.27;3.08;;;12.60;99.90;;;;;;5041680;28;20025;-77
2023/10/24 00:50:29;;;;;;;13.00;3.10;;;12.60;99.90;;;;;;5035594;28;20032;-76
2023/10/24 00:52:56;;;;;;;8.23;2.80;;;12.50;99.90;;;;;;5038168;28;20033;-76
2023/10/24 00:55:22;;;;;;;5.93;2.97;;;12.50;99.90;;;;;;5036658;28;20029;-76
2023/10/24 00:57:50;;;;;;;6.07;2.77;;;12.40;99.90;;;;;;5036682;28;20033;-77
2023/10/24 01:00:19;;;;;;;10.20;3.27;;;12.50;99.90;;;;;;5052174;28;20031;-77
2023/10/24 01:02:48;;;;;;;9.73;2.60;;;12.40;99.90;;;;;;5047346;28;20074;-76
2023/10/24 01:05:19;;;;;;;9.07;3.07;;;12.20;99.90;;;;;;5047298;28;20039;-77
2023/10/24 01:07:48;;;;;;;4.82;2.67;;;12.30;99.90;;;;;;5037314;28;20184;-77
2023/10/24 01:10:14;;;;;;;14.30;3.40;;;12.30;99.90;;;;;;5035027;28;20029;-76
2023/10/24 01:12:42;;;;;;;5.35;2.30;;;12.30;99.90;;;;;;5032887;28;20025;-76
2023/10/24 01:15:08;;;;;;;9.13;3.03;;;12.30;99.90;;;;;;5045012;28;20021;-76
2023/10/24 01:17:34;;;;;;;9.90;3.00;;;12.30;99.90;;;;;;5038161;28;20021;-77
2023/10/24 01:20:02;;;;;;;6.57;3.10;;;12.20;99.90;;;;;;5047958;28;20085;-77
2023/10/24 01:22:28;;;;;;;20.10;3.33;;;12.20;99.90;;;;;;5038152;28;20017;-77
2023/10/24 01:24:55;;;;;;;6.23;2.67;;;12.20;99.90;;;;;;5047595;28;20029;-76
2023/10/24 01:27:25;;;;;;;6.83;2.60;;;12.20;99.90;;;;;;5033215;28;20108;-77
2023/10/24 01:29:51;;;;;;;5.87;2.33;;;12.20;99.90;;;;;;5054526;28;20089;-77
2023/10/24 01:32:17;;;;;;;5.70;2.30;;;12.20;99.90;;;;;;5035902;28;20048;-77
2023/10/24 01:34:43;;;;;;;4.57;2.37;;;12.20;99.90;;;;;;5034882;28;20036;-78
2023/10/24 01:37:09;;;;;;;5.00;2.90;;;12.20;99.90;;;;;;5034536;28;20033;-76
2023/10/24 01:39:35;;;;;;;5.57;2.37;;;12.30;99.90;;;;;;5043793;28;20024;-78
2023/10/24 01:42:01;;;;;;;4.30;2.10;;;12.30;99.90;;;;;;5037578;28;20057;-77
2023/10/24 01:45:46;;;;;;;7.57;2.20;;;12.40;99.90;;;;;;5126689;27;20408;-76
2023/10/24 01:48:17;;;;;;;11.53;2.87;;;12.40;99.90;;;;;;5069626;28;20028;-76
2023/10/24 01:50:57;;;;;;;;;;;;;;;;;;;;;
2023/10/24 01:53:25;;;;;;;5.10;1.93;;;12.40;99.90;;;;;;5107733;22;20135;-76
2023/10/24 01:55:54;;;;;;;5.07;1.97;;;12.40;99.90;;;;;;5087091;28;20021;-77
2023/10/24 01:58:22;;;;;;;5.73;1.87;;;12.50;99.90;;;;;;5104103;28;20027;-76
2023/10/24 02:00:47;;;;;;;6.87;2.40;;;12.50;99.90;;;;;;5088000;28;20023;-77
2023/10/24 02:03:13;;;;;;;4.63;2.37;;;12.50;99.90;;;;;;5089853;28;20037;-77
2023/10/24 02:05:41;;;;;;;3.97;1.40;;;12.50;99.90;;;;;;5088446;28;20032;-76
2023/10/24 02:08:16;;;;;;;7.30;1.90;;;12.40;99.90;;;;;;5102522;28;20035;-77
2023/10/24 02:10:44;;;;;;;8.87;1.73;;;12.60;99.90;;;;;;5087421;28;20013;-76
2023/10/24 02:13:19;;;;;;;12.10;2.67;;;12.50;99.90;;;;;;5082920;28;20017;-77
2023/10/24 02:15:48;;;;;;;5.43;2.57;;;12.70;99.90;;;;;;5103596;28;20013;-77
2023/10/24 02:18:15;;;;;;;5.47;1.53;;;12.70;99.90;;;;;;5089349;28;20025;-75
2023/10/24 02:20:41;;;;;;;5.43;2.77;;;12.70;99.90;;;;;;5102182;28;20025;-76
2023/10/24 02:23:14;;;;;;;6.00;2.43;;;12.70;99.90;;;;;;5140778;22;20033;-76
2023/10/24 02:25:42;;;;;;;3.40;2.50;;;12.70;99.90;;;;;;5103875;28;20032;-76
2023/10/24 02:28:11;;;;;;;8.07;1.93;;;12.80;99.90;;;;;;5103353;28;20024;-77
2023/10/24 02:30:39;;;;;;;4.73;1.50;;;12.70;99.90;;;;;;5102215;28;20021;-76
2023/10/24 02:33:05;;;;;;;5.37;1.63;;;12.70;99.90;;;;;;5081579;28;20040;-76
2023/10/24 02:35:33;;;;;;;6.40;1.42;;;12.80;99.90;;;;;;5103289;28;20016;-77
2023/10/24 02:38:06;;;;;;;4.23;1.53;;;12.80;99.90;;;;;;5086707;28;20028;-77
2023/10/24 02:40:34;;;;;;;3.77;1.37;;;12.80;99.90;;;;;;5104447;28;20020;-77
2023/10/24 02:43:00;;;;;;;6.70;1.87;;;12.80;99.90;;;;;;5086798;28;20050;-76
2023/10/24 02:45:33;;;;;;;10.80;1.53;;;12.90;99.90;;;;;;5088108;28;20020;-77
2023/10/24 02:47:59;;;;;;;3.27;1.30;;;12.90;99.90;;;;;;5088339;28;20036;-76
2023/10/24 02:50:27;;;;;;;3.43;1.63;;;12.80;99.90;;;;;;5083088;28;20016;-78
2023/10/24 02:52:55;;;;;;;1.57;1.30;;;12.80;99.90;;;;;;5088135;28;20047;-77
2023/10/24 02:55:23;;;;;;;6.07;1.70;;;12.80;99.90;;;;;;5081474;28;20023;-76
2023/10/24 02:57:49;;;;;;;4.47;1.40;;;12.80;99.90;;;;;;5072005;28;20062;-77
2023/10/24 03:00:15;;;;;;;1.50;1.07;;;12.80;99.90;;;;;;5086805;28;20021;-76
2023/10/24 03:02:41;;;;;;;2.85;1.33;;;12.80;99.90;;;;;;5076201;28;20031;-76
2023/10/24 03:05:09;;;;;;;9.03;1.43;;;12.80;99.90;;;;;;5076074;28;20045;-77
2023/10/24 03:07:37;;;;;;;4.13;1.33;;;12.70;99.90;;;;;;5090141;28;20020;-77
2023/10/24 03:10:03;;;;;;;3.60;1.20;;;12.80;99.90;;;;;;5075659;28;20091;-76
2023/10/24 03:12:31;;;;;;;4.40;1.77;;;12.80;99.90;;;;;;5074094;28;20020;-76
2023/10/24 03:15:04;;;;;;;4.00;1.60;;;12.80;99.90;;;;;;5093350;28;20034;-76
2023/10/24 03:17:36;;;;;;;4.50;1.20;;;12.70;99.90;;;;;;5075010;28;20057;-76
2023/10/24 03:20:02;;;;;;;3.63;1.50;;;12.70;99.90;;;;;;5074531;28;20025;-75
2023/10/24 03:22:28;;;;;;;3.25;1.30;;;12.80;99.90;;;;;;5074785;28;20040;-76
2023/10/24 03:24:58;;;;;;;4.33;1.67;;;12.60;99.90;;;;;;5075825;28;20103;-77
2023/10/24 03:27:26;;;;;;;4.03;1.35;;;12.60;99.90;;;;;;5073912;28;20051;-77
2023/10/24 03:29:52;;;;;;;3.78;1.20;;;12.60;99.90;;;;;;5074336;28;20062;-75
2023/10/24 03:32:20;;;;;;;3.30;1.10;;;12.60;99.90;;;;;;5074455;28;20020;-77
2023/10/24 03:34:46;;;;;;;1.60;1.20;;;12.70;99.90;;;;;;5074040;28;20013;-76
2023/10/24 03:37:12;;;;;;;3.50;1.30;;;12.70;99.90;;;;;;5073854;28;20040;-78
2023/10/24 03:39:40;;;;;;;3.73;1.83;;;12.70;99.90;;;;;;5069634;28;20020;-77
2023/10/24 03:42:13;;;;;;;3.40;1.50;;;12.60;99.90;;;;;;5071516;28;20020;-77
2023/10/24 03:44:41;;;;;;;4.78;1.73;;;12.70;99.90;;;;;;5073672;28;20033;-77
2023/10/24 03:47:24;;;;;;;4.23;1.70;;;12.70;99.90;;;;;;5073439;28;20025;-77
2023/10/24 03:49:57;;;;;;;6.37;2.03;;;12.70;99.90;;;;;;5074583;28;20009;-76
2023/10/24 03:52:23;;;;;;;6.38;2.13;;;12.80;99.90;;;;;;5091475;28;20029;-77
2023/10/24 03:54:48;;;;;;;6.10;1.80;;;12.70;99.90;;;;;;5074115;28;20369;-76
2023/10/24 03:57:21;;;;;;;3.63;1.40;;;12.60;99.90;;;;;;5073153;28;20033;-76
2023/10/24 03:59:47;;;;;;;2.43;1.10;;;12.70;99.90;;;;;;5074433;28;20046;-76
2023/10/24 04:02:13;;;;;;;2.60;1.20;;;12.70;99.90;;;;;;5090696;28;20021;-77
2023/10/24 04:04:38;;;;;;;3.10;1.13;;;12.70;99.90;;;;;;5091003;28;20036;-77
2023/10/24 04:07:06;;;;;;;2.00;1.33;;;12.60;99.90;;;;;;5073686;28;20040;-77
2023/10/24 04:09:32;;;;;;;2.37;1.10;;;12.70;99.90;;;;;;5074134;28;20400;-77
2023/10/24 04:12:00;;;;;;;2.20;1.25;;;12.70;99.90;;;;;;5075382;28;20035;-77
2023/10/24 04:14:38;;;;;;;;;;;;;;;;;;;;;
2023/10/24 04:17:05;;;;;;;2.70;1.05;;;12.60;99.90;;;;;;5090043;28;20055;-76
2023/10/24 04:19:34;;;;;;;2.03;1.17;;;12.50;99.90;;;;;;5069986;28;20025;-75
2023/10/24 04:22:02;;;;;;;3.23;1.23;;;12.60;99.90;;;;;;5074284;28;20009;-76
2023/10/24 04:24:27;;;;;;;2.17;1.13;;;12.60;99.90;;;;;;5069562;28;20103;-76
2023/10/24 04:26:55;;;;;;;2.03;1.30;;;12.60;99.90;;;;;;5071077;28;20040;-76
2023/10/24 04:29:23;;;;;;;2.60;1.08;;;12.50;99.90;;;;;;5089823;28;20092;-76
2023/10/24 04:31:51;;;;;;;3.60;1.40;;;12.60;99.90;;;;;;5073985;28;20036;-77
2023/10/24 04:34:17;;;;;;;3.73;1.23;;;12.70;99.90;;;;;;5073327;28;20043;-77
2023/10/24 04:36:45;;;;;;;3.17;1.33;;;12.70;99.90;;;;;;5089764;28;20025;-76
2023/10/24 04:39:13;;;;;;;2.45;1.13;;;12.70;99.90;;;;;;5086025;28;20041;-77
2023/10/24 04:41:39;;;;;;;2.50;0.90;;;12.60;99.90;;;;;;5073760;28;20021;-77
2023/10/24 04:44:05;;;;;;;2.33;1.20;;;12.70;99.90;;;;;;5081858;28;20108;-77
2023/10/24 04:46:35;;;;;;;3.20;1.17;;;12.60;99.90;;;;;;5070253;28;20016;-77
2023/10/24 04:49:08;;;;;;;3.00;1.00;;;12.60;99.90;;;;;;5089992;28;20032;-75
2023/10/24 04:51:34;;;;;;;4.37;1.37;;;12.60;99.90;;;;;;5081218;28;20024;-77
2023/10/24 04:54:00;;;;;;;1.47;1.13;;;12.60;99.90;;;;;;5075693;28;20068;-77
2023/10/24 04:56:43;;;;;;;2.50;1.13;;;12.50;99.90;;;;;;5080321;28;20046;-78
2023/10/24 04:59:11;;;;;;;1.40;1.23;;;12.50;99.90;;;;;;5073339;28;20009;-77
2023/10/24 05:01:44;;;;;;;2.00;1.27;;;12.50;99.90;;;;;;5078898;28;20017;-76
2023/10/24 05:04:13;;;;;;;2.17;1.03;;;12.50;99.90;;;;;;5081009;28;20036;-76
2023/10/24 05:06:39;;;;;;;3.37;1.23;;;12.50;99.90;;;;;;5080739;28;20025;-76
2023/10/24 05:09:06;;;;;;;3.33;1.63;;;12.40;99.90;;;;;;5080075;28;20009;-75
2023/10/24 05:11:39;;;;;;;2.80;1.23;;;12.40;99.90;;;;;;5080765;28;20009;-77
2023/10/24 05:14:05;;;;;;;4.03;1.73;;;12.30;99.90;;;;;;5088136;28;20013;-76
2023/10/24 05:16:31;;;;;;;3.47;1.80;;;12.50;99.90;;;;;;5073866;28;20000;-77
2023/10/24 05:18:57;;;;;;;6.07;1.53;;;12.40;99.90;;;;;;5097487;28;20032;-76
2023/10/24 05:21:25;;;;;;;2.60;1.50;;;12.40;99.90;;;;;;5145406;22;20052;-76
2023/10/24 05:23:51;;;;;;;2.73;1.73;;;12.40;99.90;;;;;;5060293;28;20029;-78
2023/10/24 05:26:29;;;;;;;3.73;1.43;;;12.40;99.90;;;;;;5057394;28;20093;-76
2023/10/24 05:29:02;;;;;;;2.80;1.77;;;12.50;99.90;;;;;;5073681;28;20017;-76
2023/10/24 05:31:27;;;;;;;5.33;2.10;;;12.40;99.90;;;;;;5061198;28;20017;-77
2023/10/24 05:33:56;;;;;;;8.30;1.80;;;12.40;99.90;;;;;;5054144;28;20017;-76
2023/10/24 05:36:21;;;;;;;1.63;1.20;;;12.50;99.90;;;;;;5055133;28;20033;-76
2023/10/24 05:39:03;;;;;;;1.83;1.17;;;12.50;99.90;;;;;;5078173;28;20031;-78
2023/10/24 05:41:31;;;;;;;2.27;1.47;;;12.40;99.90;;;;;;5061121;28;20013;-75
2023/10/24 05:43:59;;;;;;;1.83;1.20;;;12.40;99.90;;;;;;5047546;28;20043;-76
2023/10/24 05:46:27;;;;;;;6.73;1.83;;;12.40;99.90;;;;;;5059514;28;20064;-76
2023/10/24 05:48:56;;;;;;;6.63;1.50;;;12.30;99.90;;;;;;5060945;28;20036;-76
2023/10/24 05:51:34;;;;;;;4.13;1.60;;;12.30;99.90;;;;;;5063639;28;20035;-76
2023/10/24 05:54:02;;;;;;;3.10;1.43;;;12.30;99.90;;;;;;5138855;22;20033;-76
2023/10/24 05:56:28;;;;;;;3.53;1.70;;;12.40;99.90;;;;;;5053387;28;20010;-78
2023/10/24 05:58:59;;;;;;;2.43;1.60;;;12.30;99.90;;;;;;5058185;28;20029;-76
2023/10/24 06:01:25;;;;;;;4.40;1.55;;;12.30;99.90;;;;;;5053197;28;20022;-76
2023/10/24 06:04:02;;;;;;;5.13;2.47;;;12.30;99.90;;;;;;5074179;28;20053;-76
2023/10/24 06:07:19;;;;;;;;;;;;;;;;;;;;;
2023/10/24 06:09:50;;;;;;;4.60;2.97;;;12.20;99.90;;;;;;5047413;28;20017;-78
2023/10/24 06:12:18;;;;;;;13.30;2.50;;;12.20;99.90;;;;;;5115118;23;20047;-75
2023/10/24 06:14:53;;;;;;;4.93;3.07;;;12.10;99.90;;;;;;5097416;28;20088;-75
2023/10/24 06:17:19;;;;;;;6.73;3.53;;;12.10;99.90;;;;;;5087691;28;20029;-76
2023/10/24 06:19:49;;;;;;;5.10;2.63;;;12.00;99.90;;;;;;5107451;28;20025;-76
2023/10/24 06:22:18;;;;;;;2.90;1.93;;;12.10;99.90;;;;;;5083179;28;20024;-77
2023/10/24 06:24:43;;;;;;;4.30;2.30;;;12.10;99.90;;;;;;5086781;28;20038;-77
2023/10/24 06:27:10;;;;;;;5.07;3.53;;;12.00;99.90;;;;;;5084779;28;20036;-76
2023/10/24 06:29:36;;;;;;;10.37;3.90;;;12.10;99.90;;;;;;5088934;28;20033;-77
2023/10/24 06:32:05;;;;;;;6.67;2.63;;;12.10;99.90;;;;;;5090048;28;20052;-77
2023/10/24 06:34:33;;;;;;;2.50;2.00;;;12.00;99.90;;;;;;5092796;28;20025;-76
2023/10/24 06:37:06;;;;;;;3.47;2.20;;;12.10;99.90;;;;;;5093727;28;20043;-76
2023/10/24 06:39:42;;;;;;;4.00;1.70;;;12.10;99.90;;;;;;5088135;28;20023;-76
2023/10/24 06:42:10;;;;;;;3.53;2.20;;;12.10;99.90;;;;;;5106208;28;20013;-76
2023/10/24 06:44:36;;;;;;;3.00;2.10;;;12.10;99.90;;;;;;5091140;28;20044;-76
2023/10/24 06:47:05;;;;;;;3.67;2.20;;;12.10;99.90;;;;;;5089711;28;20024;-76
2023/10/24 06:49:30;;;;;;;7.27;1.90;;;12.00;99.90;;;;;;5089295;28;20021;-77
2023/10/24 06:51:58;;;;;;;4.57;2.70;;;12.10;99.90;;;;;;5087854;28;20019;-76
2023/10/24 06:54:24;;;;;;;2.37;1.97;;;12.10;99.90;;;;;;5090273;28;20017;-76
2023/10/24 06:56:52;;;;;;;4.03;1.90;;;12.10;99.90;;;;;;5088799;28;20039;-76
2023/10/24 06:59:20;;;;;;;3.37;1.87;;;12.10;99.90;;;;;;5093281;28;20017;-76
2023/10/24 07:01:48;;;;;;;4.77;2.60;;;12.10;99.90;;;;;;5089142;28;20013;-76
2023/10/24 07:04:21;;;;;;;5.07;2.90;;;12.10;99.90;;;;;;5090858;28;20058;-75
2023/10/24 07:06:47;;;;;;;8.37;4.90;;;12.10;99.90;;;;;;5088633;28;20020;-77
2023/10/24 07:09:14;;;;;;;3.80;2.37;;;12.00;99.90;;;;;;5105899;28;20040;-79
2023/10/24 07:11:40;;;;;;;3.90;2.40;;;12.20;99.90;;;;;;5087218;28;20024;-76
2023/10/24 07:14:06;;;;;;;7.83;3.20;;;12.20;99.90;;;;;;5088895;28;20031;-78
2023/10/24 07:16:40;;;;;;;6.43;3.33;;;12.20;99.90;;;;;;5089022;28;20168;-76
2023/10/24 07:19:19;;;;;;;;;;;;;;;;;;;;;
2023/10/24 07:21:50;;;;;;;6.07;2.40;;;12.20;99.90;;;;;;5090786;28;20391;-76
2023/10/24 07:24:18;;;;;;;5.03;1.67;;;12.30;99.90;;;;;;5090219;28;20032;-76
2023/10/24 07:26:56;;;;;;;5.10;1.90;;;12.30;99.90;;;;;;5089442;28;20027;-76
2023/10/24 07:29:23;;;;;;;2.80;1.30;;;12.30;99.90;;;;;;5088164;28;20056;-75
2023/10/24 07:32:08;;;;;;;7.37;1.80;;;12.30;99.90;;;;;;5087811;28;20035;-77
2023/10/24 07:34:39;;;;;;;4.67;1.33;;;12.40;99.90;;;;;;5085731;28;20096;-76
2023/10/24 07:37:08;;;;;;;4.43;1.60;;;12.40;99.90;;;;;;5088082;28;20107;-78
2023/10/24 07:39:37;;;;;;;3.17;1.53;;;12.50;99.90;;;;;;5103931;28;20020;-77
2023/10/24 07:42:10;;;;;;;3.07;1.30;;;12.50;99.90;;;;;;5085554;28;20025;-77
2023/10/24 07:44:36;;;;;;;5.83;1.57;;;12.50;99.90;;;;;;5088413;28;20024;-77
2023/10/24 07:47:06;;;;;;;2.90;1.33;;;12.60;99.90;;;;;;5087303;28;20047;-78
2023/10/24 07:49:42;;;;;;;4.20;1.20;;;12.60;99.90;;;;;;5095246;28;20036;-80
2023/10/24 07:52:14;;;;;;;4.07;1.13;;;12.70;99.90;;;;;;5087913;28;20485;-77
2023/10/24 07:54:39;;;;;;;2.15;0.95;;;12.70;99.90;;;;;;5085698;28;20044;-77
2023/10/24 07:57:05;;;;;;;4.80;1.67;;;12.70;99.90;;;;;;5087426;28;20100;-76
2023/10/24 07:59:32;;;;;;;2.37;0.90;;;12.70;99.90;;;;;;5089449;28;20031;-76
2023/10/24 08:02:00;;;;;;;2.47;1.70;;;12.80;99.90;;;;;;5085119;28;20028;-75
2023/10/24 08:04:26;;;;;;;2.53;0.82;;;12.90;99.90;;;;;;5087983;28;20035;-76
2023/10/24 08:06:52;;;;;;;1.37;0.70;;;12.80;99.90;;;;;;5085338;28;20021;-75
2023/10/24 08:09:18;;;;;;;5.72;0.75;;;12.90;99.90;;;;;;5087204;28;20038;-75
2023/10/24 08:11:58;;;;;;;3.10;1.13;;;13.00;99.90;;;;;;5086620;28;20032;-75
2023/10/24 08:14:26;;;;;;;2.45;0.90;;;13.00;99.90;;;;;;5103363;28;20035;-75
2023/10/24 08:17:07;;;;;;;1.88;0.80;;;13.00;99.90;;;;;;5087549;28;20068;-75
2023/10/24 08:19:32;;;;;;;8.63;1.27;;;13.00;99.90;;;;;;5084237;28;20012;-76
2023/10/24 08:21:58;;;;;;;4.78;1.17;;;13.10;99.90;;;;;;5090087;28;20032;-75
2023/10/24 08:24:45;;;;;;;7.93;1.63;;;13.10;99.90;;;;;;5089804;28;20036;-75
2023/10/24 08:27:12;;;;;;;3.60;1.35;;;13.00;99.90;;;;;;5089868;28;20043;-76
2023/10/24 08:29:40;;;;;;;2.20;1.10;;;13.20;99.90;;;;;;5088102;28;20025;-75
2023/10/24 08:32:08;;;;;;;2.00;1.13;;;13.20;99.90;;;;;;5085544;28;20029;-76
2023/10/24 08:34:40;;;;;;;2.97;1.30;;;13.20;99.90;;;;;;5086538;28;20021;-75
2023/10/24 08:37:05;;;;;;;2.20;1.20;;;13.30;99.90;;;;;;5088670;28;20033;-75
2023/10/24 08:39:34;;;;;;;4.97;1.20;;;13.30;99.90;;;;;;5087622;28;20294;-76
2023/10/24 08:42:03;;;;;;;5.30;1.25;;;13.40;99.90;;;;;;5087217;28;20071;-76
2023/10/24 08:44:30;;;;;;;2.75;1.20;;;13.40;99.90;;;;;;5086039;28;20048;-75
2023/10/24 08:46:56;;;;;;;4.95;1.83;;;13.40;99.90;;;;;;5086103;28;20023;-74
2023/10/24 08:49:30;;;;;;;2.35;1.25;;;13.40;99.90;;;;;;5085088;28;20028;-76
2023/10/24 08:51:56;;;;;;;6.00;2.20;;;13.40;99.90;;;;;;5102822;28;20020;-75
2023/10/24 08:54:22;;;;;;;3.28;1.15;;;13.50;99.90;;;;;;5101420;28;20025;-75
2023/10/24 08:56:51;;;;;;;1.63;0.80;;;13.50;99.90;;;;;;5090114;28;20089;-75
2023/10/24 09:01:50;;;;;;;2.53;1.10;;;13.60;99.90;;;;;;5064121;28;20312;-75
2023/10/24 09:04:17;;;;;;;3.45;1.10;;;13.60;99.90;;;;;;5053532;28;20114;-76
2023/10/24 09:06:43;;;;;;;8.25;1.00;;;13.60;99.90;;;;;;5053943;28;20329;-76
2023/10/24 09:09:12;;;;;;;4.30;0.95;;;13.80;99.90;;;;;;5064865;28;20089;-76
2023/10/24 09:12:00;;;;;;;6.28;1.48;;;13.80;99.90;;;;;;5047809;28;20077;-78
2023/10/24 09:14:29;;;;;;;2.78;0.90;;;13.90;99.90;;;;;;5065638;28;20021;-76
2023/10/24 09:17:00;;;;;;;2.88;1.20;;;13.80;99.90;;;;;;5049091;28;20016;-75
2023/10/24 09:19:29;;;;;;;3.47;1.23;;;13.90;99.90;;;;;;5066677;28;20025;-75
2023/10/24 09:22:07;;;;;;;2.42;1.00;;;13.90;99.90;;;;;;5051805;28;20025;-75
2023/10/24 09:24:35;;;;;;;2.33;1.30;;;13.90;99.90;;;;;;5046816;28;20033;-75
2023/10/24 09:27:03;;;;;;;4.93;1.23;;;13.90;99.90;;;;;;5065790;28;20037;-76
2023/10/24 09:29:33;;;;;;;4.43;1.88;;;13.90;99.90;;;;;;5045643;28;20036;-75
2023/10/24 09:31:59;;;;;;;5.18;1.90;;;14.00;99.90;;;;;;5064007;28;20097;-75
2023/10/24 09:34:27;;;;;;;8.95;5.13;;;13.90;99.90;;;;;;5045660;28;20030;-74
2023/10/24 09:37:04;;;;;;;17.70;10.98;;;14.10;99.90;;;;;;5051956;28;20123;-77
2023/10/24 09:39:42;;;;;;;;;;;;;;;;;;;;;
2023/10/24 09:42:11;;;;;;;11.80;7.00;;;14.00;99.90;;;;;;5065130;28;20045;-75
2023/10/24 09:44:37;;;;;;;9.02;3.33;;;14.00;99.90;;;;;;5065818;28;20032;-75
2023/10/24 09:47:05;;;;;;;7.18;1.88;;;14.10;99.90;;;;;;5064924;28;20021;-75
2023/10/24 09:49:33;;;;;;;4.80;0.90;;;14.10;99.90;;;;;;5063573;28;20080;-75
2023/10/24 09:51:59;;;;;;;3.95;1.15;;;14.10;99.90;;;;;;5046872;28;20040;-75
2023/10/24 09:54:25;;;;;;;4.72;1.30;;;14.20;99.90;;;;;;5064711;28;20040;-76
2023/10/24 09:56:55;;;;;;;3.63;1.20;;;14.20;99.90;;;;;;5065393;28;20024;-74
2023/10/24 09:59:22;;;;;;;1.80;1.00;;;14.30;99.90;;;;;;5047772;28;20013;-75
2023/10/24 10:01:49;;;;;;;2.78;1.33;;;14.40;99.90;;;;;;5051762;28;20025;-75
2023/10/24 10:04:15;;;;;;;3.65;1.30;;;14.40;99.90;;;;;;5063876;28;20068;-75
2023/10/24 10:06:43;;;;;;;3.28;1.50;;;14.50;99.90;;;;;;5050634;28;20021;-75
2023/10/24 10:09:12;;;;;;;4.20;1.23;;;14.60;99.90;;;;;;5052134;28;20037;-75
2023/10/24 10:12:01;;;;;;;7.43;1.85;;;14.50;99.90;;;;;;5051364;28;20024;-75
2023/10/24 10:14:52;;;;;;;4.35;0.98;;;14.50;99.90;;;;;;5055471;28;20052;-76
2023/10/24 10:17:29;;;;;;;2.17;1.15;;;14.60;99.90;;;;;;5018697;28;20097;-76
2023/10/24 10:20:05;;;;;;;1.23;0.85;;;14.60;99.90;;;;;;5051819;28;20070;-75
2023/10/24 10:23:16;;;;;;;2.47;1.15;;;14.70;99.90;;;;;;5069724;28;20031;-75
2023/10/24 10:26:21;;;;;;;2.70;0.85;;;14.80;99.90;;;;;;5046758;28;20049;-76
2023/10/24 10:28:59;;;;;;;2.88;0.95;;;14.90;99.90;;;;;;5050850;28;20080;-75
2023/10/24 10:31:50;;;;;;;1.98;0.88;;;14.90;99.90;;;;;;5051823;28;20206;-75
2023/10/24 10:34:36;;;;;;;1.95;0.65;;;14.80;99.90;;;;;;5049636;28;20009;-75
2023/10/24 10:37:03;;;;;;;1.67;0.68;;;14.90;99.90;;;;;;5051113;28;20041;-76
2023/10/24 10:39:29;;;;;;;3.75;0.57;;;15.00;99.90;;;;;;5050110;28;20066;-75
2023/10/24 10:41:55;;;;;;;2.72;0.95;;;14.90;99.90;;;;;;5070087;28;20074;-76
2023/10/24 10:44:37;;;;;;;2.15;0.70;;;14.80;99.90;;;;;;5062428;28;20029;-75
2023/10/24 10:47:04;;;;;;;4.25;1.05;;;15.00;99.90;;;;;;5047326;28;20051;-75
2023/10/24 10:49:41;;;;;;;5.13;0.88;;;14.80;99.90;;;;;;5063539;28;20013;-75
2023/10/24 10:52:53;;;;;;;3.72;0.90;;;14.90;99.90;;;;;;5080549;28;20303;-76
2023/10/24 10:55:48;;;;;;;2.38;1.10;;;14.90;99.90;;;;;;5048554;28;20018;-78
2023/10/24 10:58:15;;;;;;;2.88;1.00;;;14.70;99.90;;;;;;5077884;28;20076;-80
2023/10/24 11:00:59;;;;;;;2.38;0.73;;;14.70;99.90;;;;;;5063053;28;20028;-79
2023/10/24 11:03:47;;;;;;;4.75;1.00;;;14.70;99.90;;;;;;5063231;28;20036;-78
2023/10/24 11:06:19;;;;;;;2.75;0.77;;;14.70;99.90;;;;;;5070439;28;20017;-77
2023/10/24 11:09:06;;;;;;;;;;;14.70;99.90;;;;;;5058016;28;20073;-77
2023/10/24 11:11:42;;;;;;;2.10;0.98;;;14.60;99.90;;;;;;5080227;28;19904;-78
2023/10/24 11:14:21;;;;;;;3.15;1.63;;;14.50;99.90;;;;;;5048796;28;20017;-77
2023/10/24 11:16:50;;;;;;;2.67;0.95;;;14.50;99.90;;;;;;5054232;28;20025;-77
2023/10/24 11:19:28;;;;;;;3.75;1.10;;;14.40;99.90;;;;;;5076608;28;20036;-77
2023/10/24 11:21:55;;;;;;;2.20;0.70;;;14.40;99.90;;;;;;5062179;28;20035;-77
2023/10/24 11:24:22;;;;;;;3.35;1.30;;;14.40;99.90;;;;;;5062258;28;20036;-77
2023/10/24 11:26:56;;;;;;;4.03;1.52;;;14.40;99.90;;;;;;5072766;28;20074;-78
2023/10/24 11:29:23;;;;;;;3.45;1.13;;;14.30;99.90;;;;;;5063358;28;20014;-77
2023/10/24 11:31:48;;;;;;;3.95;1.50;;;14.30;99.90;;;;;;5056746;28;20010;-77
2023/10/24 11:34:15;;;;;;;5.22;2.05;;;14.30;99.90;;;;;;5074210;28;20028;-78
2023/10/24 11:36:45;;;;;;;3.22;1.52;;;14.30;99.90;;;;;;5062612;28;20013;-77
2023/10/24 11:39:14;;;;;;;3.80;1.20;;;14.20;99.90;;;;;;5053691;28;20010;-76
2023/10/24 11:41:43;;;;;;;6.95;1.80;;;14.10;99.90;;;;;;5057982;28;20045;-77
2023/10/24 11:44:11;;;;;;;3.90;1.17;;;14.10;99.90;;;;;;5062031;28;20048;-76
2023/10/24 11:46:41;;;;;;;9.27;2.10;;;14.10;99.90;;;;;;5062164;28;20073;-76
2023/10/24 11:49:10;;;;;;;2.58;1.55;;;14.10;99.90;;;;;;5062413;28;20029;-77
2023/10/24 11:51:38;;;;;;;5.43;1.88;;;14.10;99.90;;;;;;5062094;28;20013;-76
2023/10/24 11:54:04;;;;;;;6.20;1.33;;;13.90;99.90;;;;;;5062033;28;20020;-76
2023/10/24 11:56:31;;;;;;;22.52;3.13;;;13.70;99.90;;;;;;5058535;28;20018;-76
2023/10/24 11:59:02;;;;;;;10.45;1.80;;;13.40;99.90;;;;;;5059678;28;20020;-76
2023/10/24 12:01:33;;;;;;;4.35;0.95;;;13.20;99.90;;;;;;5062316;28;20050;-76
2023/10/24 12:04:04;;;;;;;11.67;3.07;;;12.90;99.90;;;;;;5061605;28;20036;-76
2023/10/24 12:06:34;;;;;;;22.87;4.30;;;12.80;99.90;;;;;;5061832;28;20279;-77
2023/10/24 12:09:02;;;;;;;7.47;3.60;;;12.90;99.90;;;;;;5077191;28;20037;-77
2023/10/24 12:11:28;;;;;;;16.10;3.87;;;12.90;99.90;;;;;;5061972;28;20055;-76
2023/10/24 12:13:56;;;;;;;8.63;3.97;;;12.90;99.90;;;;;;5047757;28;20010;-76
2023/10/24 12:16:34;;;;;;;7.27;3.90;;;12.80;99.90;;;;;;5061750;28;20041;-76
2023/10/24 12:19:03;;;;;;;7.87;1.60;;;12.90;99.90;;;;;;5057233;28;20021;-75
2023/10/24 12:24:20;;;;;;;5.63;1.90;;;12.70;99.90;;;;;;5067152;28;20071;-76
2023/10/24 12:26:46;;;;;;;4.93;1.00;;;12.80;99.90;;;;;;5066412;28;20040;-75
2023/10/24 12:29:11;;;;;;;2.20;1.13;;;12.60;99.90;;;;;;5049339;28;20033;-74
2023/10/24 12:31:40;;;;;;;3.80;1.23;;;12.50;99.90;;;;;;5049217;28;20035;-74
2023/10/24 12:34:08;;;;;;;0.97;0.70;;;12.30;99.90;;;;;;5067678;28;20074;-75
2023/10/24 12:36:36;;;;;;;5.83;1.80;;;12.40;99.90;;;;;;5064144;28;20041;-75
2023/10/24 12:39:19;;;;;;;;;;;;;;;;;;;;;
2023/10/24 12:42:03;;;;;;;13.60;2.53;;;12.40;99.90;;;;;;5067328;28;20048;-75
2023/10/24 12:44:29;;;;;;;3.50;1.80;;;12.40;99.90;;;;;;5054172;28;20040;-75
2023/10/24 12:46:55;;;;;;;3.07;1.47;;;12.20;99.90;;;;;;5066410;28;20097;-74
2023/10/24 12:49:22;;;;;;;4.07;1.60;;;12.40;99.90;;;;;;5053379;28;20135;-74
2023/10/24 12:52:09;;;;;;;4.13;1.40;;;12.20;99.90;;;;;;5053799;28;20024;-75
2023/10/24 12:54:36;;;;;;;4.57;1.40;;;12.20;99.90;;;;;;5065120;28;20017;-75
2023/10/24 12:57:04;;;;;;;2.27;1.40;;;12.20;99.90;;;;;;5066049;28;20018;-76
2023/10/24 12:59:34;;;;;;;2.47;1.40;;;12.20;99.90;;;;;;5052963;28;20025;-76
2023/10/24 13:02:03;;;;;;;4.30;1.37;;;12.10;99.90;;;;;;5046202;28;20035;-75
2023/10/24 13:04:31;;;;;;;1.53;0.97;;;12.20;99.90;;;;;;5048756;28;20030;-75
2023/10/24 13:06:59;;;;;;;5.00;2.17;;;12.10;99.90;;;;;;5065681;28;20010;-76
2023/10/24 13:09:26;;;;;;;7.00;1.97;;;12.10;99.90;;;;;;5048947;28;20037;-74
2023/10/24 13:11:55;;;;;;;4.90;2.60;;;12.10;99.90;;;;;;5046867;28;20037;-75
2023/10/24 13:14:21;;;;;;;8.70;2.00;;;12.00;99.90;;;;;;5047226;28;20013;-75